Bethpage, New York
Current Conditions -  °F | °C
As of 12:53 AM on Thursday 23 Oct 2014 (Local Time) from KFRG Reporting Station
Overcast Overcast  
Wind Chill: 53°   Ceiling: 2200
Heat Index: 53°   Visibility: 10mi
Dew Point: 47°   Wind: 18mph
Humidity: 80%   Direction: 20°NNE
Pressure: 29.69"   Gusts: 29mph
Location:  40.74°N, 73.48°W
Report Text: KFRG 230453Z AUTO 02016G25KT 10SM BKN022 OVC026 12/08 A2969 RMK AO2 PK WND 02030/0354 SLP052 T01170083 401440106
Loading
Personal Weather Stations






























Interactive Weather Map New forecast layout! Learn more

10-Day Weather Forecast

Advertisements
Track Severe Weather on mobile